AirNav   Everest Fuels
 
 1325 users online  

20UT Mountain West Medical Center Heliport
Tooele, Utah, USA

GOING TO TOOELE?


FAA INFORMATION EFFECTIVE 05 DECEMBER 2019

Location

FAA Identifier: 20UT
Lat/Long: 40-34-06.0000N 112-17-50.0000W
40-34.100000N 112-17.833333W
40.5683333,-112.2972222
(estimated)
Elevation: 4729 ft. / 1441 m (estimated)
From city: 2 miles N of TOOELE, UT
Time zone: UTC -7 (UTC -6 during Daylight Saving Time)
Zip code: 84074

Heliport Operations

Heliport use: Private use. Permission required prior to landing
Activation date: 12/2015
Control tower: no
ARTCC: SALT LAKE CITY CENTER
FSS: CEDAR CITY FLIGHT SERVICE STATION
Attendance: CONTINUOUS
Wind indicator: lighted
Segmented circle: no
Lights: SS-SR

Heliport Communications

WX AWOS-3 at TVY (4 nm NW): 119.725 (435-882-6648)
WX AWOS-3 at U42 (14 nm E): 134.425 (801-562-0271)
WX ASOS at SLC (20 nm NE): PHONE 801-328-3567

Nearby radio navigation aids

VOR radial/distance  VOR name  Freq  Var
TCHr204/22.2WASATCH VORTAC116.8016E
FFUr301/24.0FAIRFIELD VORTAC116.6016E
PVUr294/33.8PROVO VOR/DME108.4015E

Heliport Services

Runway Information

Helipad H1

Dimensions: 45 x 45 ft. / 14 x 14 m
Surface: concrete, in good condition
Runway edge lights: high intensity
PERIMETER LGTS.
Traffic pattern: leftleft
Obstructions: 63 ft. pole, 243 ft. from runway

Heliport Ownership and Management from official FAA records

Ownership: Privately-owned
Owner: MOUNTAIN WEST MEDICAL CENTER
2055 NORTH MAIN STREET
TOOELE, UT 84074
Phone 435-843-3785
Manager: CHAD MECHAM
2055 NORTH MAIN STREET
TOOELE, UT 84074
Phone 435-843-3785

Additional Remarks

FOR CD CTC SALT LAKE CITY APCH AT 801-325-9670.

Instrument Procedures

There are no published instrument procedures at 20UT.

Some nearby airports with instrument procedures:

KTVY - Bolinder Field-Tooele Valley Airport (4 nm NW)
U42 - South Valley Regional Airport (14 nm E)
KSLC - Salt Lake City International Airport (20 nm NE)
KPVU - Provo Municipal Airport (34 nm SE)
KHIF - Hill Air Force Base (36 nm NE)
 
Loc | Ops | Rwys | IFR | FBO | Links
Com | Nav | Svcs | Stats | Notes
Aerial photo
No photo
 
Airport distance calculator
Flying to Mountain West Medical Center Heliport? Find the distance to fly.

From to 20UT

Sunrise and sunset
Times for 06-Dec-2019
 Local
(UTC-7)
 Zulu
(UTC)
Morning civil twilight07:0914:09
Sunrise07:3914:39
Sunset17:0100:01
Evening civil twilight17:3200:32

Current date and time
Zulu (UTC)  06-Dec-2019 15:22:13
Local (UTC-7)  06-Dec-2019 08:22:13
 
METAR
KTVY 
4nm NW 
061455Z AUTO 16003KT 1/4SM FZFG OVC002 00/00 A3031 RMK AO2
KU42 
14nm E 
061455Z AUTO 00000KT 1/4SM OVC048 01/01 A3031 RMK AO1 T00080008
KSLC 
20nm NE 
061454Z 01004KT 1 1/4SM R16L/6000VP6000FT BR OVC004 02/01 A3031 RMK AO2 TWR VIS 2 SLP261 T00170011 51007
TAF
KSLC 
20nm NE 
061125Z 0612/0718 30003KT 2SM BR OVC005 FM061400 14003KT 1SM BR OVC004 FM061800 14003KT 3SM BR OVC008 FM062000 22005KT 4SM HZ SCT006 OVC020 FM070300 15006KT 3SM BR BKN010 OVC030
NOTAMs
Click for the latest NOTAMs
NOTAMs are issued by the DoD/FAA and will open in a separate window not controlled by AirNav.

 

 
 

Would you like to see your business listed on this page?

 If your business provides an interesting product or service to pilots, flight crews, aircraft, or users of the Mountain West Medical Center Heliport, you should consider listing it here.  To start the listing process, click on the button below
 
Add a business
 

Other Pages about Mountain West Medical Center Heliport

Update a link
 
Copyright © AirNav, LLC. All rights reserved. Privacy Policy  Contact